createdAt,value
2022-08-25T00:02:19.704Z,97934.69
2022-08-25T00:05:07.860Z,97937.91
2022-08-25T00:07:50.658Z,97941.09
2022-08-25T00:10:39.875Z,97949.13
2022-08-25T00:13:21.614Z,97948.94
2022-08-25T00:16:13.974Z,97955.97
2022-08-25T00:19:01.072Z,97940.38
2022-08-25T00:21:43.796Z,97948.94
2022-08-25T00:24:35.646Z,97949.59
2022-08-25T00:27:24.006Z,97955.25
2022-08-25T00:30:08.319Z,97953.03
2022-08-25T00:32:57.027Z,97953.81
2022-08-25T00:35:47.643Z,97956.09
2022-08-25T00:38:29.755Z,97953.09
2022-08-25T00:41:18.661Z,97956.91
2022-08-25T00:44:10.975Z,97962.25
2022-08-25T00:46:58.691Z,97965.88
2022-08-25T00:49:51.146Z,97967.16
2022-08-25T00:53:01.648Z,97972.88
2022-08-25T00:55:50.640Z,97971.25
2022-08-25T00:58:42.536Z,97974.38
2022-08-25T01:01:31.624Z,97980.72
2022-08-25T01:04:13.887Z,97991.69
2022-08-25T01:07:05.672Z,97988.91
2022-08-25T01:10:00.553Z,97988.81
2022-08-25T01:12:49.729Z,97988.06
2022-08-25T01:15:31.964Z,97994.09
2022-08-25T01:18:20.704Z,97999.63
2022-08-25T01:21:05.383Z,98001.16
2022-08-25T01:23:55.676Z,98003.81
2022-08-25T01:26:40.844Z,97994.19
2022-08-25T01:29:29.555Z,98004.56
2022-08-25T01:32:16.043Z,98002.03
2022-08-25T01:35:04.574Z,97997.28
2022-08-25T01:37:46.924Z,98003.03
2022-08-25T01:40:35.706Z,98000.63
2022-08-25T01:43:28.816Z,97997.22
2022-08-25T01:46:10.771Z,97995.16
2022-08-25T01:49:02.747Z,97995.44
2022-08-25T01:52:08.637Z,97994.72
2022-08-25T01:54:57.630Z,98004.72
2022-08-25T01:57:39.797Z,97997.22
2022-08-25T02:00:29.573Z,97995.03
2022-08-25T02:03:17.556Z,97994.53
2022-08-25T02:06:08.669Z,98001.63
2022-08-25T02:08:50.946Z,98002.50
2022-08-25T02:11:40.656Z,98007.94
2022-08-25T02:14:30.702Z,98020.91
2022-08-25T02:17:18.918Z,98019.78
2022-08-25T02:20:00.636Z,98023.91
2022-08-25T02:22:56.693Z,98023.22
2022-08-25T02:25:46.635Z,98021.25
2022-08-25T02:28:35.692Z,98022.81
2022-08-25T02:31:17.976Z,98023.22
2022-08-25T02:34:06.648Z,98032.94
2022-08-25T02:36:49.920Z,98027.81
2022-08-25T02:39:38.664Z,98036.63
2022-08-25T02:42:20.925Z,98040.00
2022-08-25T02:45:09.639Z,98031.53
2022-08-25T02:47:51.813Z,98034.63
2022-08-25T02:50:40.704Z,98036.13
2022-08-25T02:53:22.808Z,98044.03
2022-08-25T02:56:13.062Z,98058.50
2022-08-25T02:58:56.794Z,98055.31
2022-08-25T03:01:45.603Z,98051.72
2022-08-25T03:04:28.376Z,98059.22
2022-08-25T03:07:18.621Z,98058.84
2022-08-25T03:10:03.909Z,98062.69
2022-08-25T03:12:53.546Z,98072.09
2022-08-25T03:15:38.901Z,98072.47
2022-08-25T03:18:27.558Z,98072.94
2022-08-25T03:21:10.923Z,98075.16
2022-08-25T03:23:59.649Z,98079.63
2022-08-25T03:26:59.832Z,98077.88
2022-08-25T03:29:50.638Z,98076.00
2022-08-25T03:32:39.646Z,98091.31
2022-08-25T03:35:21.731Z,98082.94
2022-08-25T03:38:12.652Z,98092.91
2022-08-25T03:40:55.807Z,98097.81
2022-08-25T03:43:44.663Z,98098.16
2022-08-25T03:46:36.591Z,98105.81
2022-08-25T03:49:28.682Z,98107.28
2022-08-25T03:52:12.754Z,98110.88
2022-08-25T03:55:01.529Z,98114.00
2022-08-25T03:57:50.636Z,98114.75
2022-08-25T04:00:32.940Z,98113.06
2022-08-25T04:03:21.626Z,98118.09
2022-08-25T04:06:10.642Z,98117.88
2022-08-25T04:09:00.642Z,98124.38
2022-08-25T04:11:44.072Z,98123.06
2022-08-25T04:14:33.618Z,98117.66
2022-08-25T04:17:15.921Z,98126.28
2022-08-25T04:20:04.512Z,98124.16
2022-08-25T04:22:47.003Z,98125.78
2022-08-25T04:25:35.615Z,98125.75
2022-08-25T04:28:18.821Z,98128.59
2022-08-25T04:31:07.659Z,98126.97
2022-08-25T04:33:49.949Z,98136.66
2022-08-25T04:36:38.524Z,98134.72
2022-08-25T04:39:21.840Z,98141.28
2022-08-25T04:42:11.614Z,98133.22
2022-08-25T04:45:07.538Z,98134.41
2022-08-25T04:47:56.623Z,98130.19
2022-08-25T04:50:45.544Z,98143.25
2022-08-25T04:53:34.605Z,98132.06
2022-08-25T04:56:35.569Z,98144.66
2022-08-25T04:59:30.080Z,98145.53
2022-08-25T05:02:14.670Z,98146.69
2022-08-25T05:04:56.965Z,98147.13
2022-08-25T05:07:45.655Z,98137.16
2022-08-25T05:10:33.931Z,98156.03
2022-08-25T05:13:15.629Z,98154.28
2022-08-25T05:16:00.444Z,98146.13
2022-08-25T05:18:50.633Z,98150.84
2022-08-25T05:21:39.953Z,98149.66
2022-08-25T05:24:21.622Z,98139.59
2022-08-25T05:27:24.551Z,98141.94
2022-08-25T05:30:14.530Z,98139.16
2022-08-25T05:32:56.817Z,98134.81
2022-08-25T05:35:48.672Z,98135.25
2022-08-25T05:38:32.802Z,98138.34
2022-08-25T05:41:26.644Z,98143.88
2022-08-25T05:44:21.638Z,98137.84
2022-08-25T05:47:10.936Z,98140.84
2022-08-25T05:49:52.538Z,98133.41
2022-08-25T05:52:42.731Z,98139.72
2022-08-25T05:55:24.945Z,98140.06
2022-08-25T05:58:14.642Z,98133.91
2022-08-25T06:01:19.774Z,98139.47
2022-08-25T06:04:08.635Z,98135.53
2022-08-25T06:07:00.542Z,98135.31
2022-08-25T06:09:43.169Z,98136.41
2022-08-25T06:12:32.566Z,98127.13
2022-08-25T06:15:29.600Z,98133.22
2022-08-25T06:18:11.921Z,98123.25
2022-08-25T06:21:00.531Z,98129.09
2022-08-25T06:23:42.972Z,98119.50
2022-08-25T06:26:31.562Z,98119.88
2022-08-25T06:29:15.070Z,98109.34
2022-08-25T06:32:03.654Z,98114.97
2022-08-25T06:34:52.672Z,98109.22
2022-08-25T06:37:41.639Z,98107.53
2022-08-25T06:40:24.236Z,98105.78
2022-08-25T06:43:16.619Z,98105.97
2022-08-25T06:46:11.501Z,98102.56
2022-08-25T06:49:08.543Z,98100.16
2022-08-25T06:51:57.665Z,98103.47
2022-08-25T06:54:39.917Z,98101.19
2022-08-25T06:57:30.650Z,98102.13
2022-08-25T07:00:14.879Z,98097.72
2022-08-25T07:03:02.621Z,98096.06
2022-08-25T07:05:51.542Z,98087.44
2022-08-25T07:08:40.701Z,98081.69
2022-08-25T07:11:23.985Z,98083.72
2022-08-25T07:14:15.546Z,98067.25
2022-08-25T07:16:57.943Z,98073.69
2022-08-25T07:19:48.644Z,98065.63
2022-08-25T07:22:42.042Z,98061.09
2022-08-25T07:25:31.619Z,98060.75
2022-08-25T07:28:13.934Z,98058.91
2022-08-25T07:31:02.585Z,98052.03
2022-08-25T07:34:05.260Z,98052.44
2022-08-25T07:36:54.660Z,98052.31
2022-08-25T07:39:38.037Z,98034.00
2022-08-25T07:42:26.626Z,98033.38
2022-08-25T07:45:09.021Z,98025.59
2022-08-25T07:47:59.616Z,98034.91
2022-08-25T07:50:50.641Z,98017.63
2022-08-25T07:53:40.533Z,98005.28
2022-08-25T07:56:24.940Z,97992.66
2022-08-25T07:59:13.984Z,97993.78
2022-08-25T08:01:57.949Z,97997.31
2022-08-25T08:04:46.637Z,97996.69
2022-08-25T08:07:43.426Z,97988.19
2022-08-25T08:10:53.854Z,97998.13
2022-08-25T08:13:42.530Z,97992.88
2022-08-25T08:16:34.606Z,97982.03
2022-08-25T08:19:23.539Z,97983.19
2022-08-25T08:22:14.539Z,97990.34
2022-08-25T08:24:56.918Z,97988.91
2022-08-25T08:27:46.622Z,97992.38
2022-08-25T08:30:35.719Z,97989.38
2022-08-25T08:33:24.965Z,97982.00
2022-08-25T08:36:09.739Z,97974.34
2022-08-25T08:38:51.742Z,97978.41
2022-08-25T08:42:10.833Z,97961.06
2022-08-25T08:44:53.820Z,97954.69
2022-08-25T08:48:27.559Z,97947.56
2022-08-25T08:51:32.908Z,97940.75
2022-08-25T08:54:36.272Z,97932.41
2022-08-25T08:57:25.861Z,97926.13
2022-08-25T09:00:16.639Z,97916.41
2022-08-25T09:03:45.609Z,97908.41
2022-08-25T09:06:55.621Z,97908.16
2022-08-25T09:09:38.568Z,97901.97
2022-08-25T09:12:30.526Z,97901.16
2022-08-25T09:16:23.270Z,97899.63
2022-08-25T09:19:33.934Z,97905.94
2022-08-25T09:22:35.649Z,97895.63
2022-08-25T09:25:52.419Z,97892.47
2022-08-25T09:28:42.906Z,97887.31
2022-08-25T09:31:41.711Z,97880.66
2022-08-25T09:34:29.676Z,97883.75
2022-08-25T09:37:18.532Z,97882.91
2022-08-25T09:40:09.195Z,97875.88
2022-08-25T09:43:02.758Z,97873.41
2022-08-25T09:45:55.866Z,97871.81
2022-08-25T09:48:58.615Z,97865.50
2022-08-25T09:51:42.784Z,97853.47
2022-08-25T09:54:44.193Z,97859.13
2022-08-25T09:57:38.782Z,97845.53
2022-08-25T10:00:47.577Z,97848.78
2022-08-25T10:03:29.980Z,97846.72
2022-08-25T10:06:30.573Z,97848.69
2022-08-25T10:09:26.231Z,97841.09
2022-08-25T10:12:19.596Z,97844.41
2022-08-25T10:15:29.841Z,97842.34
2022-08-25T10:18:41.685Z,97839.56
2022-08-25T10:21:33.058Z,97835.19
2022-08-25T10:24:20.585Z,97833.13
2022-08-25T10:27:28.385Z,97816.91
2022-08-25T10:30:32.742Z,97818.47
2022-08-25T10:33:14.954Z,97813.63
2022-08-25T10:36:25.578Z,97802.53
2022-08-25T10:39:34.234Z,97806.56
2022-08-25T10:42:30.681Z,97805.72
2022-08-25T10:45:34.436Z,97805.19
2022-08-25T10:48:26.796Z,97802.09
2022-08-25T10:51:19.624Z,97800.59
2022-08-25T10:54:30.649Z,97794.59
2022-08-25T10:57:28.476Z,97793.03
2022-08-25T11:00:31.833Z,97793.78
2022-08-25T11:03:19.076Z,97788.25
2022-08-25T11:06:27.532Z,97790.19
2022-08-25T11:09:16.144Z,97791.41
2022-08-25T11:12:18.639Z,97786.22
2022-08-25T11:15:06.476Z,97786.22
2022-08-25T11:18:14.515Z,97774.69
2022-08-25T11:21:11.918Z,97779.47
2022-08-25T11:24:13.865Z,97792.25
2022-08-25T11:27:03.951Z,97787.31
2022-08-25T11:30:06.035Z,97781.44
2022-08-25T11:32:52.980Z,97786.63
2022-08-25T11:35:51.623Z,97785.69
2022-08-25T11:38:40.118Z,97789.75
2022-08-25T11:42:09.693Z,97807.66
2022-08-25T11:45:18.941Z,97801.34
2022-08-25T11:48:20.636Z,97798.44
2022-08-25T11:51:11.144Z,97800.91
2022-08-25T11:54:28.822Z,97803.28
2022-08-25T11:57:28.967Z,97802.91
2022-08-25T12:00:22.849Z,97810.44
2022-08-25T12:03:43.803Z,97814.41
2022-08-25T12:06:33.762Z,97818.22
2022-08-25T12:09:27.781Z,97816.06
2022-08-25T12:12:39.702Z,97809.28
2022-08-25T12:15:41.398Z,97813.63
2022-08-25T12:18:45.752Z,97821.59
2022-08-25T12:21:34.227Z,97815.97
2022-08-25T12:24:27.681Z,97821.47
2022-08-25T12:27:34.654Z,97823.81
2022-08-25T12:30:59.898Z,97825.41
2022-08-25T12:34:15.680Z,97819.09
2022-08-25T12:37:07.335Z,97829.38
2022-08-25T12:40:20.635Z,97838.84
2022-08-25T12:43:21.677Z,97835.69
2022-08-25T12:46:39.682Z,97838.84
2022-08-25T12:49:41.044Z,97830.75
2022-08-25T12:52:35.698Z,97832.00
2022-08-25T12:55:31.594Z,97837.56
2022-08-25T12:58:38.662Z,97837.84
2022-08-25T13:02:07.218Z,97843.44
2022-08-25T13:05:05.121Z,97845.81
2022-08-25T13:08:19.665Z,97853.38
2022-08-25T13:11:12.672Z,97859.19
2022-08-25T13:14:05.215Z,97863.53
2022-08-25T13:16:47.663Z,97858.38
2022-08-25T13:19:36.649Z,97860.78
2022-08-25T13:22:22.006Z,97859.19
2022-08-25T13:25:13.631Z,97868.34
2022-08-25T13:28:03.070Z,97869.97
2022-08-25T13:30:51.530Z,97870.53
2022-08-25T13:33:40.761Z,97872.13
2022-08-25T13:36:46.972Z,97875.34
2022-08-25T13:39:55.937Z,97877.25
2022-08-25T13:42:45.131Z,97881.91
2022-08-25T13:45:44.791Z,97879.78
2022-08-25T13:48:39.449Z,97884.66
2022-08-25T13:51:41.544Z,97877.50
2022-08-25T13:54:46.098Z,97893.25
2022-08-25T13:57:44.612Z,97897.28
2022-08-25T14:00:53.690Z,97906.44
2022-08-25T14:03:55.299Z,97904.00
2022-08-25T14:06:44.846Z,97906.81
2022-08-25T14:09:37.788Z,97906.06
2022-08-25T14:12:44.869Z,97907.63
2022-08-25T14:15:33.950Z,97910.00
2022-08-25T14:18:27.147Z,97907.84
2022-08-25T14:21:12.502Z,97908.69
2022-08-25T14:24:01.573Z,97901.47
2022-08-25T14:26:53.958Z,97901.78
2022-08-25T14:29:44.538Z,97905.25
2022-08-25T14:32:32.901Z,97900.56
2022-08-25T14:35:17.462Z,97902.09
2022-08-25T14:37:59.675Z,97902.91
2022-08-25T14:40:48.568Z,97898.66
2022-08-25T14:43:39.397Z,97898.13
2022-08-25T14:46:31.539Z,97903.34
2022-08-25T14:49:27.627Z,97908.06
2022-08-25T14:52:22.814Z,97908.09
2022-08-25T14:55:04.948Z,97915.47
2022-08-25T14:57:53.692Z,97916.97
2022-08-25T15:00:50.910Z,97922.59
2022-08-25T15:03:50.663Z,97933.66
2022-08-25T15:06:39.751Z,97936.06
2022-08-25T15:09:33.532Z,97942.28
2022-08-25T15:12:46.197Z,97938.34
2022-08-25T15:15:34.536Z,97954.91
2022-08-25T15:18:18.609Z,97945.88
2022-08-25T15:21:09.624Z,97952.47
2022-08-25T15:23:56.206Z,97958.47
2022-08-25T15:26:45.660Z,97958.13
2022-08-25T15:29:31.424Z,97957.59
2022-08-25T15:32:21.648Z,97962.81
2022-08-25T15:35:03.922Z,97963.91
2022-08-25T15:37:55.620Z,97963.09
2022-08-25T15:40:40.117Z,97965.06
2022-08-25T15:43:28.609Z,97969.31
2022-08-25T15:46:17.825Z,97976.91
2022-08-25T15:49:07.743Z,97966.22
2022-08-25T15:51:49.905Z,97969.31
2022-08-25T15:54:39.619Z,97974.56
2022-08-25T15:57:24.288Z,97979.19
2022-08-25T16:00:16.549Z,97979.91
2022-08-25T16:03:11.493Z,97988.75
2022-08-25T16:06:06.777Z,97989.84
2022-08-25T16:08:55.987Z,97986.19
2022-08-25T16:11:41.626Z,97982.34
2022-08-25T16:14:23.746Z,97981.94
2022-08-25T16:17:13.602Z,97981.47
2022-08-25T16:20:02.624Z,97987.91
2022-08-25T16:22:45.942Z,97994.19
2022-08-25T16:25:36.730Z,97984.53
2022-08-25T16:28:28.538Z,97983.31
2022-08-25T16:31:19.673Z,97983.94
2022-08-25T16:34:09.607Z,97977.53
2022-08-25T16:37:02.579Z,97980.22
2022-08-25T16:39:46.823Z,97975.03
2022-08-25T16:42:35.685Z,97969.97
2022-08-25T16:45:26.771Z,97971.47
2022-08-25T16:48:09.098Z,97959.09
2022-08-25T16:50:57.552Z,97961.78
2022-08-25T16:53:58.380Z,97964.09
2022-08-25T16:56:50.782Z,97955.09
2022-08-25T16:59:58.046Z,97962.59
2022-08-25T17:02:50.685Z,97951.84
2022-08-25T17:06:25.592Z,97953.31
2022-08-25T17:09:32.985Z,97950.22
2022-08-25T17:12:34.676Z,97944.56
2022-08-25T17:15:36.208Z,97938.72
2022-08-25T17:18:25.520Z,97928.78
2022-08-25T17:21:24.363Z,97933.88
2022-08-25T17:24:06.937Z,97932.97
2022-08-25T17:26:58.587Z,97927.84
2022-08-25T17:29:41.903Z,97926.59
2022-08-25T17:32:30.718Z,97923.75
2022-08-25T17:35:19.590Z,97928.41
2022-08-25T17:38:09.609Z,97922.97
2022-08-25T17:40:51.952Z,97912.34
2022-08-25T17:43:43.622Z,97921.09
2022-08-25T17:46:32.725Z,97916.63
2022-08-25T17:49:16.036Z,97929.34
2022-08-25T17:52:04.636Z,97922.88
2022-08-25T17:54:48.618Z,97931.94
2022-08-25T17:57:39.778Z,97921.59
2022-08-25T18:00:23.858Z,97924.44
2022-08-25T18:03:14.514Z,97923.22
2022-08-25T18:06:05.604Z,97921.91
2022-08-25T18:09:01.608Z,97918.28
2022-08-25T18:11:51.602Z,97924.25
2022-08-25T18:14:34.599Z,97927.44
2022-08-25T18:17:21.845Z,97932.78
2022-08-25T18:20:13.595Z,97931.16
2022-08-25T18:22:59.023Z,97922.53
2022-08-25T18:25:47.738Z,97930.84
2022-08-25T18:28:37.912Z,97922.41
2022-08-25T18:31:20.767Z,97924.75
2022-08-25T18:34:04.490Z,97925.19
2022-08-25T18:36:54.612Z,97920.50
2022-08-25T18:39:55.147Z,97928.81
2022-08-25T18:42:44.734Z,97929.25
2022-08-25T18:45:31.201Z,97934.41
2022-08-25T18:48:20.699Z,97925.97
2022-08-25T18:51:10.426Z,97925.38
2022-08-25T18:53:54.617Z,97920.88
2022-08-25T18:56:49.640Z,97922.03
2022-08-25T18:59:31.742Z,97921.69
2022-08-25T19:02:20.619Z,97920.50
2022-08-25T19:05:07.473Z,97910.09
2022-08-25T19:07:59.760Z,97907.34
2022-08-25T19:10:59.572Z,97909.81
2022-08-25T19:13:49.761Z,97903.38
2022-08-25T19:16:42.130Z,97908.56
2022-08-25T19:19:32.649Z,97901.03
2022-08-25T19:22:40.597Z,97907.34
2022-08-25T19:25:32.942Z,97903.31
2022-08-25T19:28:20.101Z,97904.06
2022-08-25T19:31:11.793Z,97896.19
2022-08-25T19:33:55.929Z,97898.53
2022-08-25T19:36:45.526Z,97897.66
2022-08-25T19:39:28.598Z,97896.47
2022-08-25T19:42:37.195Z,97902.03
2022-08-25T19:45:21.028Z,97899.63
2022-08-25T19:48:13.512Z,97903.22
2022-08-25T19:50:56.323Z,97897.59
2022-08-25T19:53:45.505Z,97899.25
2022-08-25T19:56:27.920Z,97904.66
2022-08-25T19:59:16.500Z,97902.41
2022-08-25T20:02:00.955Z,97900.00
2022-08-25T20:04:51.716Z,97895.94
2022-08-25T20:07:37.228Z,97893.59
2022-08-25T20:10:39.424Z,97892.91
2022-08-25T20:13:29.935Z,97894.84
2022-08-25T20:16:12.553Z,97895.63
2022-08-25T20:19:02.616Z,97899.72
2022-08-25T20:21:46.045Z,97891.03
2022-08-25T20:24:56.076Z,97885.41
2022-08-25T20:27:43.138Z,97887.31
2022-08-25T20:30:37.584Z,97889.72
2022-08-25T20:33:26.646Z,97885.25
2022-08-25T20:36:15.598Z,97880.97
2022-08-25T20:38:59.059Z,97883.25
2022-08-25T20:41:48.638Z,97881.78
2022-08-25T20:44:42.269Z,97876.97
2022-08-25T20:47:24.877Z,97884.00
2022-08-25T20:50:13.598Z,97876.09
2022-08-25T20:53:00.097Z,97875.81
2022-08-25T20:55:50.791Z,97871.06
2022-08-25T20:58:39.291Z,97872.44
2022-08-25T21:01:49.581Z,97875.16
2022-08-25T21:04:49.985Z,97874.53
2022-08-25T21:07:35.710Z,97875.09
2022-08-25T21:10:24.861Z,97867.22
2022-08-25T21:13:16.570Z,97864.91
2022-08-25T21:16:10.480Z,97864.59
2022-08-25T21:18:56.771Z,97860.88
2022-08-25T21:21:49.631Z,97865.03
2022-08-25T21:24:42.544Z,97863.72
2022-08-25T21:27:36.070Z,97869.25
2022-08-25T21:30:22.805Z,97864.81
2022-08-25T21:33:14.629Z,97866.78
2022-08-25T21:35:56.781Z,97860.81
2022-08-25T21:38:45.583Z,97854.47
2022-08-25T21:41:31.924Z,97864.75
2022-08-25T21:44:21.517Z,97859.72
2022-08-25T21:47:04.248Z,97855.59
2022-08-25T21:49:53.629Z,97857.19
2022-08-25T21:52:35.882Z,97862.00
2022-08-25T21:55:24.618Z,97863.91
2022-08-25T21:58:13.515Z,97860.72
2022-08-25T22:01:02.606Z,97853.97
2022-08-25T22:03:47.227Z,97854.41
2022-08-25T22:06:37.604Z,97854.41
2022-08-25T22:09:28.569Z,97853.91
2022-08-25T22:12:25.466Z,97861.84
2022-08-25T22:15:23.498Z,97858.31
2022-08-25T22:18:05.932Z,97853.97
2022-08-25T22:20:54.590Z,97852.69
2022-08-25T22:23:44.080Z,97861.50
2022-08-25T22:26:33.518Z,97857.81
2022-08-25T22:29:25.273Z,97861.44
2022-08-25T22:32:07.912Z,97865.34
2022-08-25T22:34:56.570Z,97869.38
2022-08-25T22:37:45.489Z,97867.25
2022-08-25T22:40:34.672Z,97869.31
2022-08-25T22:43:18.333Z,97874.84
2022-08-25T22:46:12.872Z,97873.22
2022-08-25T22:48:54.959Z,97873.19
2022-08-25T22:51:44.499Z,97875.63
2022-08-25T22:54:35.672Z,97868.59
2022-08-25T22:57:24.903Z,97869.66
2022-08-25T23:00:06.649Z,97873.22
2022-08-25T23:02:54.156Z,97876.41
2022-08-25T23:05:43.637Z,97874.41
2022-08-25T23:08:38.209Z,97874.00
2022-08-25T23:11:31.584Z,97869.97
2022-08-25T23:14:20.603Z,97874.00
2022-08-25T23:17:11.281Z,97878.78
2022-08-25T23:19:53.571Z,97875.97
2022-08-25T23:22:42.508Z,97883.16
2022-08-25T23:25:24.817Z,97875.50
2022-08-25T23:28:13.517Z,97876.31
2022-08-25T23:30:57.238Z,97882.59
2022-08-25T23:33:48.512Z,97878.53
2022-08-25T23:36:32.902Z,97875.00
2022-08-25T23:39:21.681Z,97867.66
2022-08-25T23:42:03.894Z,97881.59
2022-08-25T23:44:52.496Z,97876.19
2022-08-25T23:47:41.589Z,97879.31
2022-08-25T23:50:31.548Z,97878.16
2022-08-25T23:53:14.869Z,97884.78
2022-08-25T23:56:05.589Z,97872.69
2022-08-25T23:58:47.895Z,97878.16
